createdAt,value
2023-03-29T00:03:47.193Z,47.67
2023-03-29T00:10:49.038Z,48.16
2023-03-29T00:17:50.780Z,48.21
2023-03-29T00:24:54.007Z,48.45
2023-03-29T00:31:56.043Z,48.67
2023-03-29T00:38:57.691Z,49.58
2023-03-29T00:45:59.328Z,49.65
2023-03-29T00:53:02.767Z,50.42
2023-03-29T01:00:05.268Z,50.18
2023-03-29T01:07:23.484Z,50.21
2023-03-29T01:14:35.162Z,50.59
2023-03-29T01:22:10.572Z,50.21
2023-03-29T01:29:34.066Z,50.95
2023-03-29T01:36:38.507Z,51.58
2023-03-29T01:43:46.409Z,51.94
2023-03-29T01:50:54.174Z,51.62
2023-03-29T01:57:55.940Z,51.40
2023-03-29T02:04:57.646Z,52.16
2023-03-29T02:12:00.284Z,52.84
2023-03-29T02:19:01.801Z,51.88
2023-03-29T02:26:03.823Z,52.20
2023-03-29T02:33:14.078Z,52.37
2023-03-29T02:40:17.489Z,53.17
2023-03-29T02:47:25.532Z,52.63
2023-03-29T02:54:29.757Z,53.43
2023-03-29T03:01:31.354Z,53.61
2023-03-29T03:08:32.927Z,52.73
2023-03-29T03:15:35.843Z,54.25
2023-03-29T03:22:38.045Z,54.70
2023-03-29T03:29:41.322Z,54.36
2023-03-29T03:37:01.566Z,53.96
2023-03-29T03:44:05.669Z,54.54
2023-03-29T03:51:07.522Z,54.89
2023-03-29T03:58:10.230Z,54.54
2023-03-29T04:05:12.099Z,55.24
2023-03-29T04:12:14.997Z,54.87
2023-03-29T04:19:17.500Z,55.57
2023-03-29T04:26:22.857Z,54.81
2023-03-29T04:33:30.971Z,55.12
2023-03-29T04:40:35.124Z,55.80
2023-03-29T04:47:45.636Z,56.61
2023-03-29T04:54:51.678Z,56.73
2023-03-29T05:02:07.223Z,56.96
2023-03-29T05:09:10.496Z,56.97
2023-03-29T05:16:24.434Z,56.31
2023-03-29T05:23:28.759Z,56.14
2023-03-29T05:30:42.633Z,55.89
2023-03-29T05:37:52.035Z,55.39
2023-03-29T05:44:54.646Z,55.32
2023-03-29T05:51:57.036Z,54.38
2023-03-29T05:58:59.575Z,54.36
2023-03-29T06:06:05.142Z,54.66
2023-03-29T06:13:08.186Z,54.29
2023-03-29T06:20:10.774Z,54.66
2023-03-29T06:27:15.455Z,53.35
2023-03-29T06:34:18.405Z,52.42
2023-03-29T06:41:43.173Z,52.79
2023-03-29T06:48:45.051Z,52.55
2023-03-29T06:55:47.271Z,52.23
2023-03-29T07:03:13.180Z,52.17
2023-03-29T07:10:15.029Z,51.37
2023-03-29T07:17:35.093Z,50.94
2023-03-29T07:24:37.633Z,50.88
2023-03-29T07:31:40.960Z,50.43
2023-03-29T07:39:01.839Z,49.75
2023-03-29T07:46:04.807Z,49.50
2023-03-29T07:53:09.004Z,49.32
2023-03-29T08:00:16.167Z,48.45
2023-03-29T08:07:27.849Z,47.74
2023-03-29T08:14:38.532Z,46.82
2023-03-29T08:21:59.015Z,45.30
2023-03-29T08:29:04.037Z,45.09
2023-03-29T08:36:05.954Z,44.00
2023-03-29T08:43:49.174Z,44.20
2023-03-29T08:50:52.768Z,41.96
2023-03-29T08:57:54.595Z,41.01
2023-03-29T09:05:26.738Z,41.92
2023-03-29T09:12:56.228Z,41.02
2023-03-29T09:20:04.979Z,40.87
2023-03-29T09:27:09.976Z,40.42
2023-03-29T09:34:22.784Z,41.80
2023-03-29T09:41:42.591Z,40.12
2023-03-29T09:48:44.550Z,38.67
2023-03-29T09:55:49.723Z,37.29
2023-03-29T10:03:31.292Z,35.41
2023-03-29T10:10:40.313Z,36.27
2023-03-29T10:17:43.357Z,37.38
2023-03-29T10:24:49.664Z,36.66
2023-03-29T10:31:51.357Z,33.78
2023-03-29T10:38:53.049Z,34.08
2023-03-29T10:45:55.976Z,33.91
2023-03-29T10:52:57.645Z,33.44
2023-03-29T10:59:59.232Z,30.60
2023-03-29T11:07:22.749Z,34.17
2023-03-29T11:14:37.198Z,36.40
2023-03-29T11:22:11.710Z,38.38
2023-03-29T11:29:41.549Z,37.87
2023-03-29T11:36:50.310Z,36.12
2023-03-29T11:43:55.071Z,37.26
2023-03-29T11:51:02.740Z,37.39
2023-03-29T11:58:15.651Z,35.87
2023-03-29T12:05:21.407Z,36.89
2023-03-29T12:12:43.702Z,38.23
2023-03-29T12:20:07.995Z,38.03
2023-03-29T12:27:27.971Z,37.64
2023-03-29T12:34:43.057Z,37.47
2023-03-29T12:42:13.657Z,37.03
2023-03-29T12:49:35.824Z,35.93
2023-03-29T12:56:53.067Z,36.79
2023-03-29T13:04:18.385Z,37.07
2023-03-29T13:11:40.726Z,37.96
2023-03-29T13:18:49.882Z,37.74
2023-03-29T13:26:14.069Z,37.32
2023-03-29T13:33:57.220Z,37.25
2023-03-29T13:41:04.004Z,37.81
2023-03-29T13:48:25.088Z,38.42
2023-03-29T13:55:32.754Z,38.35
2023-03-29T14:03:06.689Z,39.29
2023-03-29T14:10:12.357Z,39.88
2023-03-29T14:17:21.456Z,39.66
2023-03-29T14:24:26.009Z,39.97
2023-03-29T14:31:32.959Z,39.30
2023-03-29T14:38:35.553Z,40.31
2023-03-29T14:45:37.658Z,40.29
2023-03-29T14:52:39.487Z,40.04
2023-03-29T14:59:42.580Z,41.36
2023-03-29T15:06:44.837Z,41.98
2023-03-29T15:13:46.565Z,41.41
2023-03-29T15:20:48.201Z,41.84
2023-03-29T15:27:51.615Z,42.94
2023-03-29T15:35:00.455Z,44.94
2023-03-29T15:42:02.022Z,45.88
2023-03-29T15:49:04.965Z,46.62
2023-03-29T15:56:07.981Z,45.58
2023-03-29T16:03:12.078Z,45.35
2023-03-29T16:10:13.614Z,46.00
2023-03-29T16:17:15.814Z,45.54
2023-03-29T16:24:22.010Z,45.86
2023-03-29T16:31:25.839Z,45.76
2023-03-29T16:38:29.178Z,45.81
2023-03-29T16:45:30.964Z,46.98
2023-03-29T16:52:32.731Z,47.64
2023-03-29T16:59:34.254Z,47.59
2023-03-29T17:06:35.838Z,47.66
2023-03-29T17:13:37.795Z,47.73
2023-03-29T17:20:39.881Z,47.82
2023-03-29T17:27:42.290Z,48.40
2023-03-29T17:34:43.828Z,48.59
2023-03-29T17:41:46.744Z,49.07
2023-03-29T17:48:50.845Z,49.04
2023-03-29T17:55:52.457Z,49.51
2023-03-29T18:02:54.137Z,49.68
2023-03-29T18:09:55.878Z,50.13
2023-03-29T18:16:57.615Z,50.76
2023-03-29T18:23:59.284Z,51.19
2023-03-29T18:31:00.884Z,50.80
2023-03-29T18:38:03.261Z,50.39
2023-03-29T18:45:05.487Z,51.06
2023-03-29T18:52:07.020Z,52.00
2023-03-29T18:59:08.582Z,51.30
2023-03-29T19:06:11.649Z,51.40
2023-03-29T19:13:13.234Z,52.36
2023-03-29T19:20:14.776Z,52.07
2023-03-29T19:27:16.519Z,52.41
2023-03-29T19:34:20.955Z,53.62
2023-03-29T19:41:22.465Z,53.76
2023-03-29T19:48:24.714Z,53.91
2023-03-29T19:55:27.105Z,54.27
2023-03-29T20:02:28.732Z,54.24
2023-03-29T20:09:30.764Z,55.26
2023-03-29T20:16:34.739Z,54.44
2023-03-29T20:23:36.582Z,54.47
2023-03-29T20:30:39.373Z,54.71
2023-03-29T20:37:41.006Z,55.22
2023-03-29T20:44:50.272Z,55.06
2023-03-29T20:51:58.445Z,55.91
2023-03-29T20:59:00.092Z,55.95
2023-03-29T21:06:02.259Z,56.51
2023-03-29T21:13:03.854Z,56.08
2023-03-29T21:20:10.869Z,56.54
2023-03-29T21:27:12.393Z,57.28
2023-03-29T21:34:15.008Z,56.66
2023-03-29T21:41:16.642Z,57.11
2023-03-29T21:48:18.291Z,57.66
2023-03-29T21:55:19.862Z,57.88
2023-03-29T22:02:21.496Z,57.51
2023-03-29T22:09:25.950Z,57.58
2023-03-29T22:16:28.269Z,57.41
2023-03-29T22:23:30.046Z,57.46
2023-03-29T22:30:31.563Z,58.46
2023-03-29T22:37:33.107Z,58.01
2023-03-29T22:44:34.616Z,58.40
2023-03-29T22:51:36.342Z,58.93
2023-03-29T22:58:38.000Z,58.61
2023-03-29T23:05:39.575Z,59.15
2023-03-29T23:12:42.812Z,59.71
2023-03-29T23:19:44.394Z,60.32
2023-03-29T23:26:48.869Z,61.12
2023-03-29T23:33:50.607Z,61.83
2023-03-29T23:41:02.732Z,62.26
2023-03-29T23:48:04.774Z,61.84
2023-03-29T23:55:08.339Z,62.31
